Abie, NE

3:21 PM CDT on August 03, 2015 (GMT -0500)
Keating Lake | | Change Station
CLOSE
Current Station
Personal Weather Station
Location: Schuyler, NE
Elevation: 1339 ft
Nearby Weather Stations

Elev 1339 ft 41.43 °N, 97.05 °W | Updated 1 minute ago

Clear
Clear
84.9 °F
Feels Like 87 °F
N
0.0
Wind Variable Wind from SSE
Gusts 0.0 mph

Today
High -- | Low -- °F
--% Chance of Precip.
Yesterday
High -- | Low -- °F
Precip. -- in
6:24 AM 8:42 PM
Waning Gibbous, 84% visible
Pressure 29.98 in
Visibility 10.0 miles
Clouds Clear
Heat Index 87 °F
Dew Point 66 °F
Humidity 53%
Rainfall 0.02 in
Snow Depth Not available.
UV 9 out of 12
Pollen 7.20 out of 12
Air Quality Not available.
Flu Activity Not available.
METAR KAHQ 032015Z AUTO 08003KT 10SM CLR 27/18 A2998 RMK AO2 T02680175

More Conditions Fewer Conditions

Pressure 29.98 in
Visibility 10.0 miles
Clouds Clear
Heat Index 87 °F
Dew Point 66 °F
Humidity 53%
Rainfall 0.02 in
Snow Depth Not available.
UV 9 out of 12
Pollen 7.20 out of 12
Air Quality Not available.
Flu Activity Not available.
METAR KAHQ 032015Z AUTO 08003KT 10SM CLR 27/18 A2998 RMK AO2 T02680175

More Conditions Fewer Conditions

10-Day Weather Forecast

×

Almanac

Astronomy

Aug. 03, 2015 Rise Set
Actual Time
Civil Twilight
Nautical Twilight
Astronomical Twilight
Moon
Length of Visible Light
Length of Day
Tomorrow will be .
, % of the Moon is Illuminated

Today's Extremes

State Highs State Lows

Community

WunderPhotos

Upload Photos

1,843,743 photos uploaded!

WunderBlogs® & News

Nearby

Air Quality

  Air Quality AQ Index Pollutant
Not available.

Snow Depth

Station Depth Elevation

Earthquake Activity

City Distance Mag. Time & Date
Minimum magnitude displayed is 2.5.

Coastal Water Temperatures

Place Temperature

Stations

Nearby Weather Stations

Station Location Temp. Windchill Dew Point Humidity Wind Precip. Elev Updated Type